Time;durP1;ratioP1;P1;durP2;ratioP2;P2;SDS_P1;SDS_P2;PMS_P1;PMS_P2;Temp;Humidity;BMP_temperature;BMP_pressure;BME280_temperature;BME280_humidity;BME280_pressure;Samples;Min_cycle;Max_cycle;Signal;HPM_P1;HPM_P2
2022/06/01 00:01:53;;;;;;;5.10;3.40;;;10.10;97.00;;;;;;5054139;28;20321;-67
2022/06/01 00:04:20;;;;;;;7.10;3.20;;;10.00;96.90;;;;;;5056280;28;20122;-67
2022/06/01 00:06:46;;;;;;;5.97;3.70;;;9.80;96.50;;;;;;5057663;28;20116;-67
2022/06/01 00:09:20;;;;;;;7.13;3.47;;;9.70;96.00;;;;;;5053859;28;20400;-67
2022/06/01 00:11:46;;;;;;;5.93;3.80;;;9.60;95.70;;;;;;5050164;28;20112;-69
2022/06/01 00:14:11;;;;;;;6.70;3.85;;;9.50;95.60;;;;;;5057102;28;20059;-68
2022/06/01 00:16:37;;;;;;;5.82;3.90;;;9.50;95.30;;;;;;5054396;28;20021;-67
2022/06/01 00:19:03;;;;;;;7.05;3.88;;;9.40;95.60;;;;;;5056716;28;20029;-67
2022/06/01 00:21:29;;;;;;;6.68;3.70;;;9.40;95.40;;;;;;5054789;28;20033;-67
2022/06/01 00:23:54;;;;;;;7.03;3.88;;;9.40;95.70;;;;;;5054377;28;20028;-68
2022/06/01 00:26:20;;;;;;;5.03;3.22;;;9.30;94.80;;;;;;5053053;28;20033;-68
2022/06/01 00:28:46;;;;;;;7.28;3.50;;;9.30;94.90;;;;;;5055759;28;20548;-68
2022/06/01 00:31:13;;;;;;;5.97;3.75;;;9.30;95.00;;;;;;5054841;28;20082;-68
2022/06/01 00:33:39;;;;;;;9.82;3.95;;;9.30;95.00;;;;;;5055462;28;20047;-68
2022/06/01 00:36:07;;;;;;;7.93;3.67;;;9.40;95.20;;;;;;5054752;28;20151;-68
2022/06/01 00:38:33;;;;;;;6.90;4.18;;;9.60;95.90;;;;;;5055098;28;20060;-67
2022/06/01 00:41:02;;;;;;;6.20;3.58;;;9.70;96.40;;;;;;5038011;28;20029;-68
2022/06/01 00:43:44;;;;;;;6.78;3.70;;;9.70;96.20;;;;;;5054754;28;20418;-67
2022/06/01 00:46:11;;;;;;;8.05;3.38;;;9.80;96.80;;;;;;5052598;28;20074;-68
2022/06/01 00:48:40;;;;;;;6.32;3.40;;;10.00;97.60;;;;;;5056168;28;20032;-68
2022/06/01 00:51:08;;;;;;;6.47;3.42;;;10.00;97.30;;;;;;5056172;28;20032;-67
2022/06/01 00:53:36;;;;;;;7.22;3.50;;;10.00;97.00;;;;;;5054792;28;20099;-68
2022/06/01 00:56:10;;;;;;;5.70;3.40;;;9.90;97.00;;;;;;5054772;28;20413;-67
2022/06/01 00:58:37;;;;;;;;;;;9.70;96.70;;;;;;5047718;28;20112;-68
2022/06/01 01:01:05;;;;;;;6.93;3.67;;;9.70;97.00;;;;;;5053733;28;19908;-67
2022/06/01 01:03:36;;;;;;;6.55;3.47;;;9.60;96.60;;;;;;5054891;28;20112;-67
2022/06/01 01:06:11;;;;;;;7.30;3.40;;;9.70;96.80;;;;;;5055216;28;20029;-67
2022/06/01 01:08:41;;;;;;;8.20;3.72;;;9.60;97.00;;;;;;5053728;28;20032;-67
2022/06/01 01:11:11;;;;;;;9.27;3.47;;;9.50;96.60;;;;;;5053356;28;20028;-68
2022/06/01 01:13:46;;;;;;;6.97;3.63;;;9.50;96.60;;;;;;5053565;28;20361;-68
2022/06/01 01:16:14;;;;;;;6.25;3.97;;;9.50;96.60;;;;;;5055404;28;20029;-68
2022/06/01 01:18:43;;;;;;;5.68;3.67;;;9.50;96.90;;;;;;5054228;28;20056;-67
2022/06/01 01:21:11;;;;;;;7.30;3.63;;;9.40;96.80;;;;;;5052434;28;20025;-67
2022/06/01 01:23:42;;;;;;;6.40;3.55;;;9.50;96.90;;;;;;5054075;28;20035;-67
2022/06/01 01:26:09;;;;;;;6.85;3.60;;;9.70;97.50;;;;;;5053597;28;20322;-67
2022/06/01 01:28:35;;;;;;;6.68;3.85;;;9.80;97.50;;;;;;5053354;28;20037;-67
2022/06/01 01:31:05;;;;;;;6.65;3.58;;;9.60;97.10;;;;;;5054703;28;20040;-67
2022/06/01 01:33:31;;;;;;;6.70;3.67;;;9.50;96.70;;;;;;5043932;28;20049;-67
2022/06/01 01:36:04;;;;;;;6.60;3.60;;;9.50;96.90;;;;;;5053926;28;20021;-68
2022/06/01 01:38:42;;;;;;;6.47;3.42;;;9.60;97.30;;;;;;5053011;28;20049;-67
2022/06/01 01:41:13;;;;;;;7.32;3.53;;;9.70;97.50;;;;;;5052660;28;20448;-67
2022/06/01 01:44:09;;;;;;;6.50;3.42;;;9.70;97.60;;;;;;5053831;28;20060;-68
2022/06/01 01:46:35;;;;;;;5.93;3.55;;;9.80;97.60;;;;;;5053075;28;20108;-68
2022/06/01 01:49:02;;;;;;;7.93;3.67;;;9.70;97.40;;;;;;5053180;28;20060;-68
2022/06/01 01:51:29;;;;;;;5.10;3.50;;;9.60;97.10;;;;;;5053862;28;20071;-67
2022/06/01 01:53:59;;;;;;;7.22;3.72;;;9.60;97.30;;;;;;5054381;28;20041;-67
2022/06/01 01:56:35;;;;;;;5.50;3.40;;;9.60;97.30;;;;;;5052945;28;20027;-67
2022/06/01 01:59:30;;;;;;;6.50;3.60;;;9.70;97.60;;;;;;5051674;28;20079;-67
2022/06/01 02:02:06;;;;;;;7.15;3.78;;;9.70;97.30;;;;;;5054144;28;20021;-67
2022/06/01 02:07:34;;;;;;;6.35;3.35;;;9.70;97.50;;;;;;5053787;28;20083;-67
2022/06/01 02:12:47;;;;;;;7.00;3.35;;;9.60;97.30;;;;;;5053611;28;20110;-68
2022/06/01 02:15:22;;;;;;;6.10;3.50;;;9.60;97.30;;;;;;5054582;28;20028;-67
2022/06/01 02:17:53;;;;;;;5.15;3.67;;;9.50;97.20;;;;;;5053543;28;20032;-68
2022/06/01 02:20:38;;;;;;;7.35;4.13;;;9.50;97.10;;;;;;5054040;28;20028;-67
2022/06/01 02:23:04;;;;;;;7.55;3.72;;;9.50;97.10;;;;;;5050408;28;20071;-67
2022/06/01 02:25:31;;;;;;;5.85;3.47;;;9.50;97.10;;;;;;5053396;28;20330;-68
2022/06/01 02:27:58;;;;;;;8.05;4.25;;;9.60;97.50;;;;;;5053169;28;20168;-68
2022/06/01 02:30:29;;;;;;;5.82;3.60;;;9.80;97.80;;;;;;5053547;28;20033;-68
2022/06/01 02:32:57;;;;;;;5.25;3.60;;;9.90;97.80;;;;;;5052882;28;20032;-68
2022/06/01 02:35:24;;;;;;;5.28;3.17;;;9.90;97.80;;;;;;5053575;28;20021;-68
2022/06/01 02:37:55;;;;;;;7.43;3.75;;;9.60;97.60;;;;;;5053890;28;20041;-68
2022/06/01 02:40:24;;;;;;;5.85;3.25;;;9.40;96.90;;;;;;5055128;28;20078;-68
2022/06/01 02:42:51;;;;;;;6.13;3.60;;;9.30;97.00;;;;;;5051889;28;20107;-67
2022/06/01 02:45:27;;;;;;;6.15;3.35;;;9.30;97.30;;;;;;5054028;28;20040;-67
2022/06/01 02:47:56;;;;;;;5.30;3.45;;;9.40;97.40;;;;;;5053542;28;20021;-67
2022/06/01 02:50:26;;;;;;;5.75;3.70;;;9.50;97.60;;;;;;5052883;28;20074;-68
2022/06/01 02:52:54;;;;;;;7.60;3.50;;;9.40;97.30;;;;;;5053437;28;20028;-67
2022/06/01 02:55:21;;;;;;;6.40;3.63;;;9.30;97.10;;;;;;5055033;28;20381;-67
2022/06/01 02:57:48;;;;;;;6.82;3.53;;;9.30;97.30;;;;;;5053053;28;20437;-67
2022/06/01 03:00:18;;;;;;;6.72;3.80;;;9.30;97.50;;;;;;5053546;28;20441;-66
2022/06/01 03:02:46;;;;;;;6.63;3.58;;;9.30;97.60;;;;;;5055847;28;20365;-66
2022/06/01 03:05:14;;;;;;;5.95;3.67;;;9.40;97.70;;;;;;5056098;28;20102;-68
2022/06/01 03:07:40;;;;;;;6.38;3.67;;;9.40;97.80;;;;;;5056059;28;20079;-68
2022/06/01 03:10:07;;;;;;;7.72;4.00;;;9.40;97.60;;;;;;5052317;28;20013;-68
2022/06/01 03:12:32;;;;;;;6.22;3.60;;;9.30;97.50;;;;;;5055172;28;20029;-68
2022/06/01 03:14:58;;;;;;;8.20;3.97;;;9.30;97.60;;;;;;5058766;28;20416;-67
2022/06/01 03:17:24;;;;;;;7.55;3.97;;;9.20;97.60;;;;;;5058660;28;20017;-68
2022/06/01 03:19:49;;;;;;;7.32;3.65;;;9.30;97.80;;;;;;5059157;28;20314;-68
2022/06/01 03:22:15;;;;;;;6.20;3.35;;;9.40;97.90;;;;;;5058237;28;20390;-68
2022/06/01 03:24:41;;;;;;;5.15;3.28;;;9.60;98.00;;;;;;5057568;28;20033;-67
2022/06/01 03:27:07;;;;;;;6.43;3.63;;;9.70;97.90;;;;;;5054648;28;20322;-67
2022/06/01 03:29:33;;;;;;;7.32;3.67;;;9.60;97.60;;;;;;5057345;28;20450;-68
2022/06/01 03:31:59;;;;;;;8.13;4.30;;;9.40;97.60;;;;;;5048433;28;20032;-67
2022/06/01 03:34:28;;;;;;;5.88;3.47;;;9.30;97.70;;;;;;5056491;28;20029;-67
2022/06/01 03:36:54;;;;;;;5.43;3.58;;;9.30;97.60;;;;;;5056534;28;20029;-67
2022/06/01 03:39:20;;;;;;;6.32;3.83;;;9.30;97.90;;;;;;5049716;28;20108;-68
2022/06/01 03:41:46;;;;;;;6.47;3.58;;;9.40;97.80;;;;;;5051336;28;20033;-67
2022/06/01 03:47:05;;;;;;;6.85;3.80;;;9.30;97.70;;;;;;5052875;28;20154;-68
2022/06/01 03:49:32;;;;;;;8.75;3.55;;;9.30;97.60;;;;;;5051639;28;20426;-67
2022/06/01 03:51:58;;;;;;;6.70;3.45;;;9.20;97.70;;;;;;5054534;28;20436;-68
2022/06/01 03:54:24;;;;;;;6.32;3.70;;;9.20;97.90;;;;;;5052523;28;20014;-67
2022/06/01 03:56:50;;;;;;;7.13;4.00;;;9.20;97.50;;;;;;5056633;28;20033;-68
2022/06/01 03:59:15;;;;;;;4.93;3.28;;;9.20;97.60;;;;;;5056779;28;20039;-68
2022/06/01 04:01:41;;;;;;;7.60;3.35;;;9.20;97.50;;;;;;5056040;28;20330;-67
2022/06/01 04:04:07;;;;;;;7.32;3.38;;;9.20;97.80;;;;;;5056439;28;20325;-68
2022/06/01 04:06:32;;;;;;;4.80;3.50;;;9.30;97.80;;;;;;5051215;28;20033;-67
2022/06/01 04:08:58;;;;;;;4.85;3.30;;;9.30;97.70;;;;;;5054166;28;20052;-67
2022/06/01 04:11:24;;;;;;;5.97;4.10;;;9.30;97.70;;;;;;5051062;28;20033;-67
2022/06/01 04:13:49;;;;;;;6.20;3.63;;;9.20;97.70;;;;;;5056488;28;20021;-68
2022/06/01 04:16:18;;;;;;;8.07;3.40;;;9.20;97.60;;;;;;5055646;28;20053;-67
2022/06/01 04:18:45;;;;;;;6.47;3.50;;;9.20;97.40;;;;;;5048526;28;20064;-68
2022/06/01 04:21:11;;;;;;;5.78;3.70;;;9.20;97.50;;;;;;5056346;28;20040;-68
2022/06/01 04:23:37;;;;;;;6.82;3.40;;;9.20;97.60;;;;;;5054567;28;20025;-67
2022/06/01 04:26:03;;;;;;;6.68;3.92;;;9.30;97.80;;;;;;5057009;28;20037;-67
2022/06/01 04:28:28;;;;;;;7.60;3.30;;;9.40;98.00;;;;;;5045948;28;20327;-68
2022/06/01 04:30:54;;;;;;;6.18;3.90;;;9.60;97.90;;;;;;5043287;28;20433;-67
2022/06/01 04:33:20;;;;;;;6.32;3.53;;;9.60;97.90;;;;;;5053722;28;20028;-67
2022/06/01 04:35:48;;;;;;;6.32;3.55;;;9.70;97.90;;;;;;5055475;28;20677;-66
2022/06/01 04:38:13;;;;;;;5.80;3.35;;;9.70;97.80;;;;;;5051381;28;20049;-67
2022/06/01 04:40:44;;;;;;;6.57;3.65;;;9.80;97.60;;;;;;5050868;28;20444;-68
2022/06/01 04:43:12;;;;;;;7.32;3.28;;;9.90;97.90;;;;;;5053315;28;20087;-67
2022/06/01 04:45:38;;;;;;;6.03;3.65;;;10.00;97.90;;;;;;5056085;28;20493;-67
2022/06/01 04:48:03;;;;;;;6.88;3.70;;;10.00;97.80;;;;;;5056556;28;20116;-67
2022/06/01 04:50:29;;;;;;;7.40;4.07;;;9.90;97.70;;;;;;5056000;28;20029;-67
2022/06/01 04:52:55;;;;;;;7.05;3.30;;;9.80;97.40;;;;;;5053614;28;20024;-67
2022/06/01 04:55:21;;;;;;;7.95;4.10;;;10.10;97.50;;;;;;5052532;28;20025;-67
2022/06/01 04:57:46;;;;;;;6.63;3.33;;;10.20;98.00;;;;;;5054418;28;20021;-66
2022/06/01 05:00:13;;;;;;;7.00;3.50;;;10.10;97.70;;;;;;5054347;28;20025;-68
2022/06/01 05:02:38;;;;;;;5.82;3.60;;;10.10;97.40;;;;;;5056218;28;20029;-67
2022/06/01 05:05:05;;;;;;;6.93;3.75;;;10.30;97.30;;;;;;5056380;28;20040;-67
2022/06/01 05:07:30;;;;;;;7.93;3.85;;;10.40;97.30;;;;;;5055369;28;20047;-68
2022/06/01 05:09:56;;;;;;;7.03;3.72;;;10.60;97.50;;;;;;5050371;28;20037;-67
2022/06/01 05:12:22;;;;;;;5.88;3.67;;;10.70;97.50;;;;;;5053407;28;20029;-67
2022/06/01 05:14:48;;;;;;;5.90;3.92;;;10.80;97.80;;;;;;5055751;28;20032;-68
2022/06/01 05:17:13;;;;;;;7.13;3.65;;;10.90;97.70;;;;;;5053802;28;20406;-68
2022/06/01 05:19:39;;;;;;;8.00;3.55;;;10.90;97.70;;;;;;5054477;28;20029;-68
2022/06/01 05:22:04;;;;;;;9.05;4.80;;;11.10;97.50;;;;;;5036852;28;20025;-68
2022/06/01 05:24:30;;;;;;;8.95;4.53;;;11.20;97.70;;;;;;5036400;28;20226;-67
2022/06/01 05:26:56;;;;;;;5.57;3.90;;;11.30;97.70;;;;;;5053230;28;20029;-67
2022/06/01 05:29:22;;;;;;;6.95;3.95;;;11.50;97.70;;;;;;5056430;28;20025;-68
2022/06/01 05:31:48;;;;;;;6.15;3.55;;;11.60;97.60;;;;;;5056396;28;20025;-67
2022/06/01 05:34:14;;;;;;;7.78;3.80;;;11.90;97.80;;;;;;5056456;28;20025;-67
2022/06/01 05:36:39;;;;;;;6.63;3.22;;;12.20;97.40;;;;;;5055223;28;20350;-67
2022/06/01 05:39:05;;;;;;;5.30;2.78;;;12.40;97.50;;;;;;5054720;28;20037;-67
2022/06/01 05:41:31;;;;;;;4.68;2.60;;;12.70;96.80;;;;;;5055237;28;20114;-67
2022/06/01 05:43:56;;;;;;;8.30;3.10;;;13.10;95.70;;;;;;5056297;28;20051;-68
2022/06/01 05:46:23;;;;;;;6.18;3.22;;;13.40;94.20;;;;;;5056402;28;20490;-67
2022/06/01 05:48:48;;;;;;;7.05;2.63;;;13.70;92.40;;;;;;5055288;28;20029;-67
2022/06/01 05:51:14;;;;;;;7.38;2.88;;;13.90;92.90;;;;;;5055397;28;20047;-67
2022/06/01 05:53:43;;;;;;;4.65;2.75;;;14.00;92.80;;;;;;5056102;28;20028;-67
2022/06/01 05:56:09;;;;;;;5.47;2.92;;;14.10;91.80;;;;;;5056067;28;20021;-67
2022/06/01 05:58:34;;;;;;;5.18;2.20;;;14.30;89.10;;;;;;5054787;28;20032;-67
2022/06/01 06:01:04;;;;;;;4.82;2.10;;;14.50;87.30;;;;;;5056067;28;20028;-69
2022/06/01 06:03:30;;;;;;;7.30;2.15;;;14.80;86.90;;;;;;5056118;28;20487;-68
2022/06/01 06:08:43;;;;;;;5.00;1.90;;;15.20;84.50;;;;;;5056183;28;20043;-68
2022/06/01 06:11:11;;;;;;;5.47;2.42;;;15.30;84.60;;;;;;5055546;28;20032;-68
2022/06/01 06:13:37;;;;;;;5.88;2.28;;;15.40;83.80;;;;;;5055280;28;20100;-68
2022/06/01 06:16:04;;;;;;;7.95;2.75;;;15.60;84.00;;;;;;5055877;28;20101;-68
2022/06/01 06:18:30;;;;;;;5.47;2.40;;;15.70;82.90;;;;;;5054843;28;20048;-68
2022/06/01 06:20:55;;;;;;;5.50;2.10;;;15.80;83.50;;;;;;5054994;28;20025;-68
2022/06/01 06:23:21;;;;;;;5.10;2.00;;;15.90;83.60;;;;;;5054195;28;20094;-67
2022/06/01 06:25:48;;;;;;;5.10;2.20;;;16.00;82.80;;;;;;5054974;28;20039;-68
2022/06/01 06:28:16;;;;;;;4.80;2.53;;;16.10;84.40;;;;;;5054569;28;20358;-68
2022/06/01 06:30:42;;;;;;;4.72;2.33;;;16.20;84.40;;;;;;5055683;28;20064;-68
2022/06/01 06:33:08;;;;;;;4.57;2.38;;;16.30;84.70;;;;;;5055448;28;20119;-68
2022/06/01 06:35:34;;;;;;;5.85;2.40;;;16.30;83.50;;;;;;5054695;28;20025;-68
2022/06/01 06:38:01;;;;;;;5.72;2.60;;;16.40;84.50;;;;;;5058811;28;20052;-68
2022/06/01 06:40:27;;;;;;;5.07;2.58;;;16.50;83.80;;;;;;5059700;28;20100;-68
2022/06/01 06:42:53;;;;;;;6.35;2.58;;;16.70;83.80;;;;;;5057631;28;20088;-68
2022/06/01 06:45:20;;;;;;;5.50;2.08;;;16.70;82.70;;;;;;5059779;28;20045;-68
2022/06/01 06:47:46;;;;;;;8.02;2.40;;;16.70;80.40;;;;;;5059510;28;20017;-68
2022/06/01 06:50:13;;;;;;;4.55;2.30;;;16.70;81.40;;;;;;5059614;28;20021;-68
2022/06/01 06:52:39;;;;;;;5.78;2.10;;;16.80;80.70;;;;;;5059096;28;20029;-67
2022/06/01 06:55:06;;;;;;;4.82;2.40;;;16.80;79.30;;;;;;5059401;28;20111;-68
2022/06/01 06:57:32;;;;;;;5.00;2.17;;;17.00;82.40;;;;;;5057388;28;20038;-68
2022/06/01 06:59:57;;;;;;;4.75;1.92;;;17.10;79.70;;;;;;5059384;28;20029;-68
2022/06/01 07:02:23;;;;;;;5.78;2.15;;;17.20;79.90;;;;;;5058066;28;20079;-68
2022/06/01 07:04:49;;;;;;;5.53;2.03;;;17.40;80.40;;;;;;5059245;28;20111;-68
2022/06/01 07:07:15;;;;;;;3.30;1.73;;;17.40;78.20;;;;;;5059373;28;20064;-68
2022/06/01 07:09:41;;;;;;;5.15;2.13;;;17.70;78.10;;;;;;5059234;28;20029;-68
2022/06/01 07:12:07;;;;;;;5.75;2.60;;;18.00;78.30;;;;;;5057169;28;20410;-68
2022/06/01 07:14:33;;;;;;;5.18;2.08;;;18.40;77.80;;;;;;5059454;28;20041;-68
2022/06/01 07:17:00;;;;;;;4.85;2.08;;;18.60;76.50;;;;;;5059023;28;20100;-68
2022/06/01 07:19:26;;;;;;;7.45;2.60;;;18.80;76.20;;;;;;5058993;28;20023;-68
2022/06/01 07:21:51;;;;;;;3.70;1.70;;;18.80;76.70;;;;;;5058904;28;20295;-68
2022/06/01 07:24:17;;;;;;;3.95;1.73;;;18.90;72.50;;;;;;5058822;28;20091;-67
2022/06/01 07:26:44;;;;;;;4.68;1.50;;;19.20;68.60;;;;;;5057511;28;20021;-67
2022/06/01 07:29:11;;;;;;;3.92;1.58;;;19.50;67.00;;;;;;5058751;28;20097;-67
2022/06/01 07:31:37;;;;;;;11.77;2.28;;;19.70;67.30;;;;;;5058284;28;20029;-67
2022/06/01 07:34:03;;;;;;;4.30;1.50;;;20.30;66.80;;;;;;5058870;28;20112;-67
2022/06/01 07:36:30;;;;;;;3.80;1.33;;;20.50;63.70;;;;;;5058699;28;20028;-67
2022/06/01 07:44:31;;;;;;;4.38;2.00;;;20.90;63.30;;;;;;5038687;28;20492;-67
2022/06/01 07:46:57;;;;;;;4.55;1.67;;;21.00;63.70;;;;;;5038583;28;20033;-67
2022/06/01 07:49:23;;;;;;;3.78;1.42;;;21.50;60.10;;;;;;5048481;28;20445;-67
2022/06/01 07:51:49;;;;;;;6.10;1.58;;;21.40;61.90;;;;;;5058385;28;20033;-67
2022/06/01 07:54:16;;;;;;;6.47;1.60;;;21.70;62.60;;;;;;5057185;28;20036;-67
2022/06/01 07:56:41;;;;;;;5.20;1.40;;;22.10;59.50;;;;;;5057061;28;20021;-67
2022/06/01 07:59:08;;;;;;;3.88;1.30;;;22.00;57.80;;;;;;5058402;28;20291;-67
2022/06/01 08:01:35;;;;;;;3.58;1.33;;;21.90;58.60;;;;;;5057617;28;20037;-68
2022/06/01 08:04:03;;;;;;;4.03;1.30;;;22.10;58.20;;;;;;5056665;28;20337;-67
2022/06/01 08:06:29;;;;;;;5.00;1.65;;;22.00;60.10;;;;;;5057918;28;20112;-67
2022/06/01 08:08:55;;;;;;;3.13;1.40;;;22.50;59.10;;;;;;5057153;28;20032;-67
2022/06/01 08:13:06;;;;;;;5.20;1.63;;;22.60;58.70;;;;;;5056719;28;20034;-67
2022/06/01 08:14:08;;;;;;;2.88;1.30;;;22.30;56.30;;;;;;5057975;28;20059;-68
2022/06/01 08:16:34;;;;;;;4.03;1.40;;;22.40;55.10;;;;;;5057723;28;20112;-67
2022/06/01 08:18:59;;;;;;;3.92;1.48;;;22.50;55.00;;;;;;5058030;28;20049;-67
2022/06/01 08:21:25;;;;;;;3.70;1.25;;;22.80;55.60;;;;;;5058032;28;20028;-67
2022/06/01 08:23:51;;;;;;;8.40;1.27;;;22.70;55.70;;;;;;5057168;28;20037;-67
2022/06/01 08:26:17;;;;;;;4.63;1.23;;;23.40;54.90;;;;;;5055950;28;20086;-67
2022/06/01 08:28:45;;;;;;;4.05;1.30;;;23.60;55.10;;;;;;5057222;28;20040;-67
2022/06/01 08:31:10;;;;;;;2.45;1.00;;;23.10;53.70;;;;;;5057489;28;20032;-67
2022/06/01 08:33:37;;;;;;;2.75;1.30;;;22.40;54.60;;;;;;5057849;28;20462;-67
2022/06/01 08:36:02;;;;;;;3.30;1.38;;;21.60;56.30;;;;;;5057226;28;20029;-67
2022/06/01 08:38:28;;;;;;;4.35;1.25;;;20.60;57.80;;;;;;5056776;28;20124;-67
2022/06/01 08:41:04;;;;;;;4.80;1.60;;;20.60;58.70;;;;;;5057247;28;20029;-67
2022/06/01 08:43:53;;;;;;;5.15;1.50;;;20.90;59.10;;;;;;5056423;28;20089;-67
2022/06/01 08:46:21;;;;;;;3.42;1.60;;;21.70;58.20;;;;;;5057114;28;20032;-67
2022/06/01 08:49:01;;;;;;;4.50;1.20;;;22.40;57.40;;;;;;5057470;28;20048;-66
2022/06/01 08:51:29;;;;;;;4.20;1.42;;;22.50;57.10;;;;;;5057412;28;20028;-67
2022/06/01 08:53:58;;;;;;;2.90;1.20;;;23.10;56.40;;;;;;5055503;28;20024;-66
2022/06/01 08:56:36;;;;;;;4.20;1.63;;;22.90;57.20;;;;;;5054215;28;20075;-69
2022/06/01 08:59:01;;;;;;;5.80;1.98;;;23.60;55.70;;;;;;5056758;28;20024;-68
2022/06/01 09:01:52;;;;;;;3.50;1.60;;;23.90;54.50;;;;;;5056846;28;20036;-67
2022/06/01 09:04:23;;;;;;;5.22;2.53;;;23.30;55.80;;;;;;5055905;28;20020;-69
2022/06/01 09:07:06;;;;;;;4.20;1.90;;;21.90;59.40;;;;;;5057078;28;20033;-69
2022/06/01 09:10:03;;;;;;;5.32;1.67;;;21.70;59.70;;;;;;5055835;28;20033;-68
2022/06/01 09:12:33;;;;;;;3.60;1.75;;;21.20;61.00;;;;;;5054874;28;20025;-68
2022/06/01 09:15:04;;;;;;;6.70;3.35;;;20.40;62.60;;;;;;5055371;28;20032;-68
2022/06/01 09:17:33;;;;;;;5.85;2.65;;;20.10;63.40;;;;;;5056674;28;20025;-67
2022/06/01 09:22:43;;;;;;;5.82;2.40;;;21.30;62.00;;;;;;5056828;28;20178;-68
2022/06/01 09:25:19;;;;;;;5.18;2.20;;;22.20;58.40;;;;;;5056143;28;20120;-68
2022/06/01 09:27:52;;;;;;;8.88;2.78;;;22.20;58.10;;;;;;5053489;28;20025;-68
2022/06/01 09:30:24;;;;;;;7.38;2.85;;;22.10;57.00;;;;;;5056655;28;20017;-67
2022/06/01 09:33:20;;;;;;;9.75;2.75;;;21.60;57.80;;;;;;5056526;28;20051;-68
2022/06/01 09:35:58;;;;;;;7.78;3.20;;;21.10;58.60;;;;;;5056351;28;20311;-67
2022/06/01 09:38:51;;;;;;;13.15;4.30;;;20.60;58.50;;;;;;5056252;28;20049;-68
2022/06/01 09:41:31;;;;;;;7.15;2.60;;;21.00;58.30;;;;;;5054499;28;20403;-68
2022/06/01 09:44:04;;;;;;;7.53;2.88;;;21.40;57.40;;;;;;5055938;28;20033;-68
2022/06/01 09:46:36;;;;;;;6.63;2.65;;;22.30;56.60;;;;;;5056436;28;20491;-68
2022/06/01 09:49:11;;;;;;;6.20;1.83;;;22.70;55.30;;;;;;5056223;28;20029;-68
2022/06/01 09:51:41;;;;;;;13.73;4.82;;;22.10;56.30;;;;;;5057369;28;20528;-69
2022/06/01 09:54:21;;;;;;;5.80;2.40;;;21.90;56.90;;;;;;5055822;28;20025;-69
2022/06/01 09:56:48;;;;;;;3.88;1.42;;;21.60;56.90;;;;;;5052490;28;20325;-69
2022/06/01 10:08:17;;;;;;;5.05;1.63;;;22.70;56.90;;;;;;5055562;28;20074;-67
2022/06/01 10:11:09;;;;;;;3.17;1.48;;;22.70;55.40;;;;;;5053675;28;20071;-68
2022/06/01 10:13:48;;;;;;;3.67;1.40;;;22.50;55.60;;;;;;5054730;28;20024;-68
2022/06/01 10:16:35;;;;;;;2.90;1.27;;;21.80;57.60;;;;;;5055777;28;20021;-68
2022/06/01 10:19:03;;;;;;;3.80;1.48;;;21.50;57.80;;;;;;5054346;28;20029;-68
2022/06/01 10:21:43;;;;;;;4.35;1.60;;;21.90;57.50;;;;;;5056023;28;20108;-67
2022/06/01 10:24:16;;;;;;;2.80;1.38;;;22.20;56.10;;;;;;5055841;28;20029;-67
2022/06/01 10:26:55;;;;;;;3.47;1.30;;;21.70;56.40;;;;;;5053567;28;20017;-67
2022/06/01 10:29:34;;;;;;;3.38;1.20;;;21.20;57.90;;;;;;5054835;28;20039;-68
2022/06/01 10:32:11;;;;;;;3.85;1.80;;;21.50;58.60;;;;;;5055721;28;20029;-68
2022/06/01 10:34:53;;;;;;;4.65;1.40;;;22.20;56.80;;;;;;5055864;28;20049;-67
2022/06/01 10:37:23;;;;;;;3.65;1.40;;;22.90;56.90;;;;;;5054583;28;20083;-67
2022/06/01 10:40:01;;;;;;;3.25;1.20;;;23.80;54.70;;;;;;5055617;28;20033;-68
2022/06/01 10:45:26;;;;;;;4.40;1.40;;;23.40;55.00;;;;;;5053441;28;20075;-68
2022/06/01 10:48:08;;;;;;;3.47;1.25;;;23.50;55.50;;;;;;5053871;28;20480;-68
2022/06/01 10:50:41;;;;;;;5.55;1.80;;;23.10;55.30;;;;;;5051372;28;20025;-68
2022/06/01 10:53:29;;;;;;;5.30;1.50;;;23.40;54.80;;;;;;5054809;28;20384;-68
2022/06/01 10:55:56;;;;;;;4.30;1.48;;;22.60;55.70;;;;;;5052795;28;20425;-67
2022/06/01 10:58:26;;;;;;;4.85;1.40;;;21.90;55.80;;;;;;5049736;28;20025;-67
2022/06/01 11:01:02;;;;;;;5.63;1.50;;;22.10;56.50;;;;;;5055327;28;20083;-67
2022/06/01 11:04:05;;;;;;;2.60;1.30;;;22.40;56.70;;;;;;5054298;28;20032;-66
2022/06/01 11:06:39;;;;;;;6.47;1.52;;;22.60;56.30;;;;;;5051983;28;20029;-67
2022/06/01 11:09:16;;;;;;;7.68;1.67;;;22.80;55.30;;;;;;5054488;28;20025;-67
2022/06/01 11:12:10;;;;;;;2.72;1.13;;;22.40;55.50;;;;;;5053189;28;20029;-68
2022/06/01 11:15:13;;;;;;;5.15;1.92;;;22.00;56.50;;;;;;5051150;28;20132;-68
2022/06/01 11:18:02;;;;;;;4.47;1.75;;;22.00;57.10;;;;;;5050661;28;20037;-68
2022/06/01 11:21:00;;;;;;;5.65;1.75;;;22.20;57.60;;;;;;5053773;28;20029;-68
2022/06/01 11:23:50;;;;;;;3.33;1.55;;;22.80;55.20;;;;;;5054678;28;20475;-68
2022/06/01 11:26:31;;;;;;;5.35;2.22;;;23.20;55.60;;;;;;5054539;28;20097;-68
2022/06/01 11:29:14;;;;;;;4.90;2.03;;;23.30;54.60;;;;;;5054568;28;20036;-67
2022/06/01 11:31:41;;;;;;;9.65;3.75;;;23.00;56.20;;;;;;5052843;28;20112;-68
2022/06/01 11:34:18;;;;;;;8.18;2.78;;;22.70;55.10;;;;;;5058023;28;20017;-68
2022/06/01 11:37:00;;;;;;;9.25;3.88;;;22.40;55.60;;;;;;5055309;28;20014;-67
2022/06/01 11:39:36;;;;;;;7.50;3.00;;;22.30;55.70;;;;;;5047720;28;20576;-68
2022/06/01 11:42:10;;;;;;;5.00;1.98;;;22.60;55.60;;;;;;5054506;28;20036;-68
2022/06/01 11:44:38;;;;;;;6.40;2.63;;;22.90;54.90;;;;;;5056322;28;20348;-68
2022/06/01 11:47:17;;;;;;;6.05;1.45;;;23.10;54.50;;;;;;5057541;28;20172;-69
2022/06/01 11:49:59;;;;;;;8.43;3.60;;;23.10;54.90;;;;;;5058616;28;20025;-68
2022/06/01 11:52:24;;;;;;;3.60;1.50;;;22.90;54.40;;;;;;5058316;28;20025;-68
2022/06/01 11:55:12;;;;;;;3.25;1.40;;;22.90;54.70;;;;;;5056679;28;20036;-69
2022/06/01 11:58:06;;;;;;;6.00;2.17;;;22.90;54.50;;;;;;5056334;28;20036;-68
2022/06/01 12:00:35;;;;;;;7.03;2.58;;;22.70;55.30;;;;;;5057390;28;20428;-68
2022/06/01 12:03:20;;;;;;;4.60;1.77;;;22.90;54.80;;;;;;5058160;28;20051;-68
2022/06/01 12:06:05;;;;;;;7.40;3.15;;;22.80;54.90;;;;;;5038219;28;20100;-68
2022/06/01 12:08:40;;;;;;;3.05;1.30;;;22.60;55.20;;;;;;5038392;28;20025;-68
2022/06/01 12:11:13;;;;;;;2.85;1.40;;;22.60;55.70;;;;;;5051082;28;20116;-68
2022/06/01 12:13:46;;;;;;;4.43;1.52;;;22.40;55.70;;;;;;5056125;28;20499;-68
2022/06/01 12:16:27;;;;;;;3.63;1.40;;;22.40;55.60;;;;;;5058043;28;20045;-68
2022/06/01 12:19:02;;;;;;;7.47;1.33;;;22.10;56.10;;;;;;5058152;28;20021;-68
2022/06/01 12:21:57;;;;;;;4.82;1.70;;;22.60;55.80;;;;;;5057940;28;20498;-68
2022/06/01 12:29:53;;;;;;;;;;;22.90;55.40;;;;;;5058091;28;20353;-69
2022/06/01 12:32:18;;;;;;;7.60;2.22;;;22.70;55.60;;;;;;5057631;28;20011;-68
2022/06/01 12:35:06;;;;;;;5.88;1.60;;;22.60;56.00;;;;;;5056418;28;20527;-68
2022/06/01 12:37:40;;;;;;;3.20;1.25;;;22.90;56.00;;;;;;5057167;28;20036;-68
2022/06/01 12:40:20;;;;;;;3.30;1.38;;;23.20;55.50;;;;;;5056009;28;20087;-68
2022/06/01 12:42:52;;;;;;;3.42;1.50;;;23.50;55.90;;;;;;5036395;28;20357;-67
2022/06/01 12:45:21;;;;;;;3.08;1.40;;;23.30;53.60;;;;;;5053394;28;20472;-70
2022/06/01 12:48:00;;;;;;;4.40;1.50;;;22.90;54.90;;;;;;5057203;28;20028;-69
2022/06/01 12:50:29;;;;;;;4.25;1.40;;;23.00;54.70;;;;;;5056328;28;20021;-69
2022/06/01 12:53:16;;;;;;;3.75;1.30;;;23.00;55.30;;;;;;5053982;28;20380;-69
2022/06/01 12:55:43;;;;;;;3.20;1.30;;;23.70;55.20;;;;;;5055246;28;20433;-69
2022/06/01 12:58:26;;;;;;;2.72;1.38;;;23.80;55.10;;;;;;5056062;28;20025;-69
2022/06/01 13:00:56;;;;;;;4.73;1.47;;;23.50;54.90;;;;;;5057092;28;20017;-68
2022/06/01 13:03:25;;;;;;;3.20;1.30;;;23.10;55.10;;;;;;5056712;28;20094;-68
2022/06/01 13:05:56;;;;;;;3.63;1.50;;;22.70;55.60;;;;;;5057146;28;20036;-68
2022/06/01 13:08:26;;;;;;;5.07;1.40;;;22.50;56.40;;;;;;5057029;28;20024;-68
2022/06/01 13:10:52;;;;;;;4.50;1.58;;;22.10;56.70;;;;;;5056018;28;20024;-68
2022/06/01 13:13:23;;;;;;;4.07;1.70;;;21.70;56.70;;;;;;5055219;28;20036;-68
2022/06/01 13:16:01;;;;;;;5.63;1.63;;;21.40;57.20;;;;;;5056544;28;20047;-68
2022/06/01 13:18:35;;;;;;;5.60;1.90;;;21.20;57.60;;;;;;5057019;28;20017;-68
2022/06/01 13:21:09;;;;;;;6.57;1.38;;;21.10;58.20;;;;;;5056914;28;20021;-68
2022/06/01 13:23:47;;;;;;;3.15;1.30;;;21.20;57.50;;;;;;5055357;28;20037;-68
2022/06/01 13:26:44;;;;;;;3.38;1.60;;;21.40;57.10;;;;;;5056700;28;20303;-68
2022/06/01 13:29:18;;;;;;;3.38;1.42;;;21.70;57.60;;;;;;5056537;28;20029;-68
2022/06/01 13:31:48;;;;;;;2.88;1.40;;;22.40;57.70;;;;;;5056251;28;20037;-68
2022/06/01 13:34:22;;;;;;;3.17;1.50;;;23.10;56.50;;;;;;5056207;28;20056;-68
2022/06/01 13:36:50;;;;;;;6.38;1.90;;;23.40;55.30;;;;;;5056716;28;20013;-68
2022/06/01 13:39:29;;;;;;;6.05;1.73;;;23.00;55.90;;;;;;5054619;28;20044;-69
2022/06/01 13:42:03;;;;;;;5.38;1.63;;;23.30;55.70;;;;;;5054984;28;20033;-68
2022/06/01 13:44:43;;;;;;;3.42;1.50;;;22.90;56.30;;;;;;5056358;28;20375;-68
2022/06/01 13:47:09;;;;;;;3.63;1.40;;;22.60;57.00;;;;;;5056073;28;20409;-68